sensor_id;sensor_type;location;lat;lon;timestamp;P1;durP1;ratioP1;P2;durP2;ratioP2
71502;SDS011;59322;51.382;7.372;2024-03-02T00:02:02;64.88;;;61.08;;
71502;SDS011;59322;51.382;7.372;2024-03-02T00:04:28;66.97;;;63.08;;
71502;SDS011;59322;51.382;7.372;2024-03-02T00:06:54;66.00;;;62.17;;
71502;SDS011;59322;51.382;7.372;2024-03-02T00:09:20;64.38;;;60.72;;
71502;SDS011;59322;51.382;7.372;2024-03-02T00:11:46;63.38;;;59.63;;
71502;SDS011;59322;51.382;7.372;2024-03-02T00:14:12;60.55;;;56.97;;
71502;SDS011;59322;51.382;7.372;2024-03-02T00:16:38;60.75;;;57.25;;
71502;SDS011;59322;51.382;7.372;2024-03-02T00:19:05;61.15;;;57.65;;
71502;SDS011;59322;51.382;7.372;2024-03-02T00:21:31;63.85;;;60.15;;
71502;SDS011;59322;51.382;7.372;2024-03-02T00:23:57;60.95;;;57.28;;
71502;SDS011;59322;51.382;7.372;2024-03-02T00:26:23;61.22;;;57.67;;
71502;SDS011;59322;51.382;7.372;2024-03-02T00:28:54;59.63;;;56.13;;
71502;SDS011;59322;51.382;7.372;2024-03-02T00:31:21;58.75;;;55.25;;
71502;SDS011;59322;51.382;7.372;2024-03-02T00:33:47;61.95;;;58.45;;
71502;SDS011;59322;51.382;7.372;2024-03-02T00:36:14;58.63;;;55.22;;
71502;SDS011;59322;51.382;7.372;2024-03-02T00:41:15;57.05;;;53.70;;
71502;SDS011;59322;51.382;7.372;2024-03-02T00:46:23;56.97;;;53.58;;
71502;SDS011;59322;51.382;7.372;2024-03-02T00:48:58;57.05;;;53.70;;
71502;SDS011;59322;51.382;7.372;2024-03-02T00:51:25;56.15;;;52.72;;
71502;SDS011;59322;51.382;7.372;2024-03-02T00:53:51;56.97;;;53.63;;
71502;SDS011;59322;51.382;7.372;2024-03-02T00:56:17;56.28;;;52.97;;
71502;SDS011;59322;51.382;7.372;2024-03-02T00:58:43;55.70;;;52.40;;
71502;SDS011;59322;51.382;7.372;2024-03-02T01:01:09;55.08;;;51.80;;
71502;SDS011;59322;51.382;7.372;2024-03-02T01:03:35;55.72;;;52.53;;
71502;SDS011;59322;51.382;7.372;2024-03-02T01:06:01;54.35;;;51.13;;
71502;SDS011;59322;51.382;7.372;2024-03-02T01:08:27;54.55;;;51.08;;
71502;SDS011;59322;51.382;7.372;2024-03-02T01:10:53;52.85;;;49.83;;
71502;SDS011;59322;51.382;7.372;2024-03-02T01:13:19;51.10;;;48.00;;
71502;SDS011;59322;51.382;7.372;2024-03-02T01:15:45;53.80;;;50.60;;
71502;SDS011;59322;51.382;7.372;2024-03-02T01:18:11;52.53;;;49.35;;
71502;SDS011;59322;51.382;7.372;2024-03-02T01:20:37;53.25;;;50.05;;
71502;SDS011;59322;51.382;7.372;2024-03-02T01:23:03;55.20;;;51.90;;
71502;SDS011;59322;51.382;7.372;2024-03-02T01:25:28;50.92;;;47.92;;
71502;SDS011;59322;51.382;7.372;2024-03-02T01:27:54;52.63;;;49.55;;
71502;SDS011;59322;51.382;7.372;2024-03-02T01:30:20;50.97;;;47.95;;
71502;SDS011;59322;51.382;7.372;2024-03-02T01:32:46;53.70;;;50.47;;
71502;SDS011;59322;51.382;7.372;2024-03-02T01:35:12;51.63;;;48.58;;
71502;SDS011;59322;51.382;7.372;2024-03-02T01:37:38;51.25;;;48.15;;
71502;SDS011;59322;51.382;7.372;2024-03-02T01:40:04;59.88;;;56.28;;
71502;SDS011;59322;51.382;7.372;2024-03-02T01:42:30;57.47;;;54.10;;
71502;SDS011;59322;51.382;7.372;2024-03-02T01:44:56;58.83;;;55.35;;
71502;SDS011;59322;51.382;7.372;2024-03-02T01:47:22;58.45;;;55.05;;
71502;SDS011;59322;51.382;7.372;2024-03-02T01:49:48;61.03;;;57.33;;
71502;SDS011;59322;51.382;7.372;2024-03-02T01:52:14;56.60;;;53.30;;
71502;SDS011;59322;51.382;7.372;2024-03-02T01:54:40;55.97;;;52.55;;
71502;SDS011;59322;51.382;7.372;2024-03-02T01:57:06;54.67;;;51.28;;
71502;SDS011;59322;51.382;7.372;2024-03-02T01:59:32;53.13;;;50.00;;
71502;SDS011;59322;51.382;7.372;2024-03-02T02:01:57;52.30;;;49.20;;
71502;SDS011;59322;51.382;7.372;2024-03-02T02:04:23;52.72;;;49.53;;
71502;SDS011;59322;51.382;7.372;2024-03-02T02:06:49;53.00;;;49.92;;
71502;SDS011;59322;51.382;7.372;2024-03-02T02:09:15;51.17;;;48.08;;
71502;SDS011;59322;51.382;7.372;2024-03-02T02:11:41;50.42;;;47.50;;
71502;SDS011;59322;51.382;7.372;2024-03-02T02:14:07;51.55;;;48.20;;
71502;SDS011;59322;51.382;7.372;2024-03-02T02:16:33;51.78;;;48.67;;
71502;SDS011;59322;51.382;7.372;2024-03-02T02:18:59;50.53;;;47.63;;
71502;SDS011;59322;51.382;7.372;2024-03-02T02:21:25;47.78;;;44.85;;
71502;SDS011;59322;51.382;7.372;2024-03-02T02:23:50;46.83;;;44.03;;
71502;SDS011;59322;51.382;7.372;2024-03-02T02:26:16;45.80;;;43.00;;
71502;SDS011;59322;51.382;7.372;2024-03-02T02:28:42;43.58;;;40.55;;
71502;SDS011;59322;51.382;7.372;2024-03-02T02:31:08;41.45;;;38.85;;
71502;SDS011;59322;51.382;7.372;2024-03-02T02:33:34;41.05;;;38.50;;
71502;SDS011;59322;51.382;7.372;2024-03-02T02:36:04;42.35;;;39.83;;
71502;SDS011;59322;51.382;7.372;2024-03-02T02:38:30;41.45;;;39.03;;
71502;SDS011;59322;51.382;7.372;2024-03-02T02:40:56;47.80;;;45.00;;
71502;SDS011;59322;51.382;7.372;2024-03-02T02:43:22;47.97;;;45.17;;
71502;SDS011;59322;51.382;7.372;2024-03-02T02:45:48;50.97;;;48.08;;
71502;SDS011;59322;51.382;7.372;2024-03-02T02:48:14;49.50;;;46.58;;
71502;SDS011;59322;51.382;7.372;2024-03-02T02:50:41;49.88;;;46.97;;
71502;SDS011;59322;51.382;7.372;2024-03-02T02:53:07;51.75;;;48.85;;
71502;SDS011;59322;51.382;7.372;2024-03-02T02:55:33;51.38;;;48.25;;
71502;SDS011;59322;51.382;7.372;2024-03-02T02:57:58;51.10;;;48.17;;
71502;SDS011;59322;51.382;7.372;2024-03-02T03:00:24;51.28;;;48.38;;
71502;SDS011;59322;51.382;7.372;2024-03-02T03:02:50;49.72;;;46.75;;
71502;SDS011;59322;51.382;7.372;2024-03-02T03:05:16;50.05;;;47.15;;
71502;SDS011;59322;51.382;7.372;2024-03-02T03:07:42;51.63;;;48.72;;
71502;SDS011;59322;51.382;7.372;2024-03-02T03:10:08;52.67;;;49.40;;
71502;SDS011;59322;51.382;7.372;2024-03-02T03:12:34;51.88;;;48.75;;
71502;SDS011;59322;51.382;7.372;2024-03-02T03:15:00;54.42;;;51.30;;
71502;SDS011;59322;51.382;7.372;2024-03-02T03:17:26;63.53;;;59.90;;
71502;SDS011;59322;51.382;7.372;2024-03-02T03:19:52;64.22;;;60.47;;
71502;SDS011;59322;51.382;7.372;2024-03-02T03:22:18;62.40;;;58.80;;
71502;SDS011;59322;51.382;7.372;2024-03-02T03:24:44;61.33;;;57.22;;
71502;SDS011;59322;51.382;7.372;2024-03-02T03:27:10;62.40;;;58.83;;
71502;SDS011;59322;51.382;7.372;2024-03-02T03:29:36;61.72;;;57.85;;
71502;SDS011;59322;51.382;7.372;2024-03-02T03:32:02;61.95;;;58.35;;
71502;SDS011;59322;51.382;7.372;2024-03-02T03:34:28;61.55;;;57.95;;
71502;SDS011;59322;51.382;7.372;2024-03-02T03:36:54;63.13;;;59.60;;
71502;SDS011;59322;51.382;7.372;2024-03-02T03:39:20;66.78;;;62.88;;
71502;SDS011;59322;51.382;7.372;2024-03-02T03:41:46;65.70;;;62.00;;
71502;SDS011;59322;51.382;7.372;2024-03-02T03:44:12;63.25;;;59.58;;
71502;SDS011;59322;51.382;7.372;2024-03-02T03:46:38;66.65;;;62.85;;
71502;SDS011;59322;51.382;7.372;2024-03-02T03:49:03;73.80;;;69.57;;
71502;SDS011;59322;51.382;7.372;2024-03-02T03:51:29;68.05;;;64.05;;
71502;SDS011;59322;51.382;7.372;2024-03-02T03:53:55;62.95;;;59.35;;
71502;SDS011;59322;51.382;7.372;2024-03-02T03:56:21;60.28;;;56.88;;
71502;SDS011;59322;51.382;7.372;2024-03-02T03:58:47;55.00;;;51.75;;
71502;SDS011;59322;51.382;7.372;2024-03-02T04:01:13;57.47;;;54.17;;
71502;SDS011;59322;51.382;7.372;2024-03-02T04:03:39;59.25;;;55.85;;
71502;SDS011;59322;51.382;7.372;2024-03-02T04:06:05;58.75;;;55.38;;
71502;SDS011;59322;51.382;7.372;2024-03-02T04:08:31;60.10;;;56.60;;
71502;SDS011;59322;51.382;7.372;2024-03-02T04:10:57;61.83;;;58.33;;
71502;SDS011;59322;51.382;7.372;2024-03-02T04:13:23;62.33;;;58.72;;
71502;SDS011;59322;51.382;7.372;2024-03-02T04:15:48;60.47;;;56.97;;
71502;SDS011;59322;51.382;7.372;2024-03-02T04:18:14;65.57;;;61.72;;
71502;SDS011;59322;51.382;7.372;2024-03-02T04:20:40;60.90;;;57.30;;
71502;SDS011;59322;51.382;7.372;2024-03-02T04:23:06;62.72;;;59.22;;
71502;SDS011;59322;51.382;7.372;2024-03-02T04:25:32;55.75;;;52.45;;
71502;SDS011;59322;51.382;7.372;2024-03-02T04:27:58;52.78;;;49.70;;
71502;SDS011;59322;51.382;7.372;2024-03-02T04:30:24;55.53;;;52.33;;
71502;SDS011;59322;51.382;7.372;2024-03-02T04:32:50;56.80;;;53.50;;
71502;SDS011;59322;51.382;7.372;2024-03-02T04:35:15;54.42;;;51.35;;
71502;SDS011;59322;51.382;7.372;2024-03-02T04:37:41;63.63;;;59.63;;
71502;SDS011;59322;51.382;7.372;2024-03-02T04:40:07;66.47;;;62.72;;
71502;SDS011;59322;51.382;7.372;2024-03-02T04:42:34;65.35;;;61.42;;
71502;SDS011;59322;51.382;7.372;2024-03-02T04:45:00;63.72;;;60.08;;
71502;SDS011;59322;51.382;7.372;2024-03-02T04:47:26;63.60;;;60.00;;
71502;SDS011;59322;51.382;7.372;2024-03-02T04:49:52;64.68;;;60.88;;
71502;SDS011;59322;51.382;7.372;2024-03-02T04:52:18;62.33;;;58.67;;
71502;SDS011;59322;51.382;7.372;2024-03-02T04:54:44;65.25;;;61.47;;
71502;SDS011;59322;51.382;7.372;2024-03-02T04:57:10;69.47;;;65.43;;
71502;SDS011;59322;51.382;7.372;2024-03-02T04:59:35;67.45;;;63.25;;
71502;SDS011;59322;51.382;7.372;2024-03-02T05:02:01;71.72;;;67.65;;
71502;SDS011;59322;51.382;7.372;2024-03-02T05:04:27;73.72;;;69.55;;
71502;SDS011;59322;51.382;7.372;2024-03-02T05:06:53;67.80;;;63.88;;
71502;SDS011;59322;51.382;7.372;2024-03-02T05:09:19;69.35;;;65.38;;
71502;SDS011;59322;51.382;7.372;2024-03-02T05:11:45;74.75;;;70.45;;
71502;SDS011;59322;51.382;7.372;2024-03-02T05:14:11;74.78;;;70.40;;
71502;SDS011;59322;51.382;7.372;2024-03-02T05:16:37;75.18;;;70.88;;
71502;SDS011;59322;51.382;7.372;2024-03-02T05:19:03;78.07;;;73.60;;
71502;SDS011;59322;51.382;7.372;2024-03-02T05:21:29;71.38;;;67.18;;
71502;SDS011;59322;51.382;7.372;2024-03-02T05:23:55;68.07;;;64.22;;
71502;SDS011;59322;51.382;7.372;2024-03-02T05:26:21;65.78;;;61.85;;
71502;SDS011;59322;51.382;7.372;2024-03-02T05:28:47;64.63;;;60.85;;
71502;SDS011;59322;51.382;7.372;2024-03-02T05:31:14;63.38;;;59.67;;
71502;SDS011;59322;51.382;7.372;2024-03-02T05:33:40;60.53;;;56.63;;
71502;SDS011;59322;51.382;7.372;2024-03-02T05:36:06;59.28;;;55.78;;
71502;SDS011;59322;51.382;7.372;2024-03-02T05:38:35;60.20;;;56.60;;
71502;SDS011;59322;51.382;7.372;2024-03-02T05:41:01;63.38;;;59.55;;
71502;SDS011;59322;51.382;7.372;2024-03-02T05:43:27;59.92;;;56.33;;
71502;SDS011;59322;51.382;7.372;2024-03-02T05:45:53;58.97;;;55.38;;
71502;SDS011;59322;51.382;7.372;2024-03-02T05:48:19;59.63;;;56.03;;
71502;SDS011;59322;51.382;7.372;2024-03-02T05:50:45;59.30;;;55.63;;
71502;SDS011;59322;51.382;7.372;2024-03-02T05:53:11;57.15;;;53.80;;
71502;SDS011;59322;51.382;7.372;2024-03-02T05:55:36;57.05;;;53.38;;
71502;SDS011;59322;51.382;7.372;2024-03-02T05:58:02;58.05;;;54.65;;
71502;SDS011;59322;51.382;7.372;2024-03-02T06:00:28;58.30;;;54.72;;
71502;SDS011;59322;51.382;7.372;2024-03-02T06:02:54;59.75;;;56.05;;
71502;SDS011;59322;51.382;7.372;2024-03-02T06:05:20;59.25;;;55.72;;
71502;SDS011;59322;51.382;7.372;2024-03-02T06:07:46;61.47;;;57.53;;
71502;SDS011;59322;51.382;7.372;2024-03-02T06:10:12;61.28;;;57.55;;
71502;SDS011;59322;51.382;7.372;2024-03-02T06:12:38;62.45;;;58.65;;
71502;SDS011;59322;51.382;7.372;2024-03-02T06:15:04;60.78;;;56.97;;
71502;SDS011;59322;51.382;7.372;2024-03-02T06:17:30;63.08;;;59.25;;
71502;SDS011;59322;51.382;7.372;2024-03-02T06:19:56;60.08;;;56.45;;
71502;SDS011;59322;51.382;7.372;2024-03-02T06:22:22;65.00;;;60.80;;
71502;SDS011;59322;51.382;7.372;2024-03-02T06:24:47;58.40;;;54.88;;
71502;SDS011;59322;51.382;7.372;2024-03-02T06:27:13;60.83;;;56.97;;
71502;SDS011;59322;51.382;7.372;2024-03-02T06:29:39;58.17;;;54.38;;
71502;SDS011;59322;51.382;7.372;2024-03-02T06:32:05;61.42;;;57.53;;
71502;SDS011;59322;51.382;7.372;2024-03-02T06:34:31;61.50;;;57.70;;
71502;SDS011;59322;51.382;7.372;2024-03-02T06:36:57;59.88;;;56.13;;
71502;SDS011;59322;51.382;7.372;2024-03-02T06:39:23;57.13;;;53.63;;
71502;SDS011;59322;51.382;7.372;2024-03-02T06:41:49;60.42;;;56.63;;
71502;SDS011;59322;51.382;7.372;2024-03-02T06:44:15;63.58;;;59.58;;
71502;SDS011;59322;51.382;7.372;2024-03-02T06:46:40;61.47;;;57.58;;
71502;SDS011;59322;51.382;7.372;2024-03-02T06:49:06;63.83;;;60.03;;
71502;SDS011;59322;51.382;7.372;2024-03-02T06:51:33;64.30;;;60.20;;
71502;SDS011;59322;51.382;7.372;2024-03-02T06:53:59;64.93;;;61.00;;
71502;SDS011;59322;51.382;7.372;2024-03-02T06:56:25;63.75;;;59.92;;
71502;SDS011;59322;51.382;7.372;2024-03-02T06:58:51;70.85;;;66.55;;
71502;SDS011;59322;51.382;7.372;2024-03-02T07:01:17;71.65;;;67.45;;
71502;SDS011;59322;51.382;7.372;2024-03-02T07:03:43;72.65;;;68.07;;
71502;SDS011;59322;51.382;7.372;2024-03-02T07:06:09;74.57;;;70.15;;
71502;SDS011;59322;51.382;7.372;2024-03-02T07:08:34;72.03;;;67.70;;
71502;SDS011;59322;51.382;7.372;2024-03-02T07:11:00;74.28;;;69.78;;
71502;SDS011;59322;51.382;7.372;2024-03-02T07:13:26;73.70;;;69.13;;
71502;SDS011;59322;51.382;7.372;2024-03-02T07:15:52;68.70;;;64.50;;
71502;SDS011;59322;51.382;7.372;2024-03-02T07:18:18;65.10;;;60.80;;
71502;SDS011;59322;51.382;7.372;2024-03-02T07:20:44;62.47;;;58.75;;
71502;SDS011;59322;51.382;7.372;2024-03-02T07:23:10;71.78;;;67.55;;
71502;SDS011;59322;51.382;7.372;2024-03-02T07:25:36;75.15;;;70.68;;
71502;SDS011;59322;51.382;7.372;2024-03-02T07:28:02;72.55;;;68.07;;
71502;SDS011;59322;51.382;7.372;2024-03-02T07:30:28;72.28;;;67.97;;
71502;SDS011;59322;51.382;7.372;2024-03-02T07:32:53;71.28;;;67.07;;
71502;SDS011;59322;51.382;7.372;2024-03-02T07:35:19;73.68;;;69.30;;
71502;SDS011;59322;51.382;7.372;2024-03-02T07:37:45;77.35;;;72.75;;
71502;SDS011;59322;51.382;7.372;2024-03-02T07:40:11;80.22;;;75.15;;
71502;SDS011;59322;51.382;7.372;2024-03-02T07:42:40;74.82;;;70.13;;
71502;SDS011;59322;51.382;7.372;2024-03-02T07:45:06;69.90;;;65.68;;
71502;SDS011;59322;51.382;7.372;2024-03-02T07:47:33;73.30;;;68.97;;
71502;SDS011;59322;51.382;7.372;2024-03-02T07:49:59;68.55;;;64.43;;
71502;SDS011;59322;51.382;7.372;2024-03-02T07:52:25;75.13;;;70.60;;
71502;SDS011;59322;51.382;7.372;2024-03-02T07:54:51;75.63;;;71.03;;
71502;SDS011;59322;51.382;7.372;2024-03-02T07:57:17;76.07;;;71.65;;
71502;SDS011;59322;51.382;7.372;2024-03-02T07:59:43;72.80;;;68.47;;
71502;SDS011;59322;51.382;7.372;2024-03-02T08:02:09;72.97;;;68.28;;
71502;SDS011;59322;51.382;7.372;2024-03-02T08:04:35;69.25;;;65.15;;
71502;SDS011;59322;51.382;7.372;2024-03-02T08:07:01;71.10;;;66.75;;
71502;SDS011;59322;51.382;7.372;2024-03-02T08:09:27;71.25;;;66.97;;
71502;SDS011;59322;51.382;7.372;2024-03-02T08:11:53;66.32;;;62.22;;
71502;SDS011;59322;51.382;7.372;2024-03-02T08:14:19;63.42;;;59.53;;
71502;SDS011;59322;51.382;7.372;2024-03-02T08:16:44;61.38;;;57.58;;
71502;SDS011;59322;51.382;7.372;2024-03-02T08:19:11;65.03;;;61.20;;
71502;SDS011;59322;51.382;7.372;2024-03-02T08:21:37;67.53;;;63.53;;
71502;SDS011;59322;51.382;7.372;2024-03-02T08:24:03;67.53;;;63.42;;
71502;SDS011;59322;51.382;7.372;2024-03-02T08:29:14;61.10;;;57.35;;
71502;SDS011;59322;51.382;7.372;2024-03-02T08:31:40;65.35;;;61.47;;
71502;SDS011;59322;51.382;7.372;2024-03-02T08:34:05;61.35;;;57.65;;
71502;SDS011;59322;51.382;7.372;2024-03-02T08:36:31;69.13;;;64.93;;
71502;SDS011;59322;51.382;7.372;2024-03-02T08:38:57;57.95;;;54.55;;
71502;SDS011;59322;51.382;7.372;2024-03-02T08:41:23;53.38;;;50.15;;
71502;SDS011;59322;51.382;7.372;2024-03-02T08:43:49;53.67;;;50.08;;
71502;SDS011;59322;51.382;7.372;2024-03-02T08:46:15;52.85;;;49.40;;
71502;SDS011;59322;51.382;7.372;2024-03-02T08:48:41;54.60;;;51.40;;
71502;SDS011;59322;51.382;7.372;2024-03-02T08:51:07;53.33;;;50.22;;
71502;SDS011;59322;51.382;7.372;2024-03-02T08:53:33;52.17;;;49.17;;
71502;SDS011;59322;51.382;7.372;2024-03-02T08:55:59;53.22;;;50.13;;
71502;SDS011;59322;51.382;7.372;2024-03-02T08:58:25;52.50;;;49.40;;
71502;SDS011;59322;51.382;7.372;2024-03-02T09:00:51;49.72;;;46.72;;
71502;SDS011;59322;51.382;7.372;2024-03-02T09:03:17;48.72;;;45.65;;
71502;SDS011;59322;51.382;7.372;2024-03-02T09:05:42;44.58;;;41.95;;
71502;SDS011;59322;51.382;7.372;2024-03-02T09:08:08;47.60;;;44.80;;
71502;SDS011;59322;51.382;7.372;2024-03-02T09:10:34;43.42;;;40.72;;
71502;SDS011;59322;51.382;7.372;2024-03-02T09:13:00;44.85;;;42.05;;
71502;SDS011;59322;51.382;7.372;2024-03-02T09:15:26;43.88;;;41.20;;
71502;SDS011;59322;51.382;7.372;2024-03-02T09:17:52;39.53;;;37.13;;
71502;SDS011;59322;51.382;7.372;2024-03-02T09:20:18;40.80;;;38.42;;
71502;SDS011;59322;51.382;7.372;2024-03-02T09:22:44;41.38;;;38.97;;
71502;SDS011;59322;51.382;7.372;2024-03-02T09:25:10;41.28;;;38.88;;
71502;SDS011;59322;51.382;7.372;2024-03-02T09:27:36;41.05;;;38.63;;
71502;SDS011;59322;51.382;7.372;2024-03-02T09:30:03;41.58;;;39.17;;
71502;SDS011;59322;51.382;7.372;2024-03-02T09:32:29;41.28;;;38.88;;
71502;SDS011;59322;51.382;7.372;2024-03-02T09:34:55;43.88;;;41.38;;
71502;SDS011;59322;51.382;7.372;2024-03-02T09:37:21;40.03;;;37.70;;
71502;SDS011;59322;51.382;7.372;2024-03-02T09:39:46;36.55;;;34.35;;
71502;SDS011;59322;51.382;7.372;2024-03-02T09:42:12;34.55;;;32.55;;
71502;SDS011;59322;51.382;7.372;2024-03-02T09:44:39;39.85;;;37.65;;
71502;SDS011;59322;51.382;7.372;2024-03-02T09:47:06;36.25;;;33.95;;
71502;SDS011;59322;51.382;7.372;2024-03-02T09:49:32;33.97;;;31.98;;
71502;SDS011;59322;51.382;7.372;2024-03-02T09:51:58;37.15;;;35.05;;
71502;SDS011;59322;51.382;7.372;2024-03-02T09:54:24;37.35;;;35.13;;
71502;SDS011;59322;51.382;7.372;2024-03-02T09:56:50;39.38;;;36.90;;
71502;SDS011;59322;51.382;7.372;2024-03-02T09:59:16;37.92;;;35.78;;
71502;SDS011;59322;51.382;7.372;2024-03-02T10:01:55;34.67;;;32.58;;
71502;SDS011;59322;51.382;7.372;2024-03-02T10:04:21;32.80;;;30.90;;
71502;SDS011;59322;51.382;7.372;2024-03-02T10:06:47;34.00;;;32.10;;
71502;SDS011;59322;51.382;7.372;2024-03-02T10:09:13;32.83;;;30.95;;
71502;SDS011;59322;51.382;7.372;2024-03-02T10:11:52;35.58;;;33.58;;
71502;SDS011;59322;51.382;7.372;2024-03-02T10:14:17;32.88;;;30.85;;
71502;SDS011;59322;51.382;7.372;2024-03-02T10:16:44;33.95;;;32.03;;
71502;SDS011;59322;51.382;7.372;2024-03-02T10:19:16;33.13;;;31.20;;
71502;SDS011;59322;51.382;7.372;2024-03-02T10:21:42;34.15;;;32.05;;
71502;SDS011;59322;51.382;7.372;2024-03-02T10:24:08;29.95;;;28.25;;
71502;SDS011;59322;51.382;7.372;2024-03-02T10:26:34;32.10;;;30.08;;
71502;SDS011;59322;51.382;7.372;2024-03-02T10:29:00;31.60;;;29.73;;
71502;SDS011;59322;51.382;7.372;2024-03-02T10:31:26;31.70;;;29.80;;
71502;SDS011;59322;51.382;7.372;2024-03-02T10:33:52;31.80;;;30.00;;
71502;SDS011;59322;51.382;7.372;2024-03-02T10:36:18;32.05;;;30.23;;
71502;SDS011;59322;51.382;7.372;2024-03-02T10:38:44;30.33;;;28.52;;
71502;SDS011;59322;51.382;7.372;2024-03-02T10:41:09;31.23;;;29.50;;
71502;SDS011;59322;51.382;7.372;2024-03-02T10:43:36;31.55;;;29.73;;
71502;SDS011;59322;51.382;7.372;2024-03-02T10:46:02;31.00;;;29.30;;
71502;SDS011;59322;51.382;7.372;2024-03-02T10:48:28;29.10;;;27.25;;
71502;SDS011;59322;51.382;7.372;2024-03-02T10:50:55;31.23;;;29.33;;
71502;SDS011;59322;51.382;7.372;2024-03-02T10:53:21;30.10;;;28.20;;
71502;SDS011;59322;51.382;7.372;2024-03-02T10:55:47;26.55;;;24.95;;
71502;SDS011;59322;51.382;7.372;2024-03-02T10:58:18;24.70;;;23.15;;
71502;SDS011;59322;51.382;7.372;2024-03-02T11:00:45;26.30;;;24.80;;
71502;SDS011;59322;51.382;7.372;2024-03-02T11:03:11;24.75;;;23.25;;
71502;SDS011;59322;51.382;7.372;2024-03-02T11:05:41;23.95;;;22.65;;
71502;SDS011;59322;51.382;7.372;2024-03-02T11:08:12;23.90;;;22.50;;
71502;SDS011;59322;51.382;7.372;2024-03-02T11:10:44;26.35;;;24.77;;
71502;SDS011;59322;51.382;7.372;2024-03-02T11:13:14;24.80;;;23.30;;
71502;SDS011;59322;51.382;7.372;2024-03-02T11:15:40;27.48;;;25.58;;
71502;SDS011;59322;51.382;7.372;2024-03-02T11:18:09;24.95;;;23.45;;
71502;SDS011;59322;51.382;7.372;2024-03-02T11:20:38;23.77;;;22.38;;
71502;SDS011;59322;51.382;7.372;2024-03-02T11:23:05;22.88;;;21.45;;
71502;SDS011;59322;51.382;7.372;2024-03-02T11:25:31;24.77;;;23.33;;
71502;SDS011;59322;51.382;7.372;2024-03-02T11:28:01;23.10;;;21.80;;
71502;SDS011;59322;51.382;7.372;2024-03-02T11:33:03;26.33;;;24.73;;
71502;SDS011;59322;51.382;7.372;2024-03-02T11:35:29;24.17;;;22.63;;
71502;SDS011;59322;51.382;7.372;2024-03-02T11:37:55;28.20;;;26.38;;
71502;SDS011;59322;51.382;7.372;2024-03-02T11:40:24;25.15;;;23.67;;
71502;SDS011;59322;51.382;7.372;2024-03-02T11:42:50;27.42;;;25.73;;
71502;SDS011;59322;51.382;7.372;2024-03-02T11:45:16;25.90;;;24.42;;
71502;SDS011;59322;51.382;7.372;2024-03-02T11:47:46;27.33;;;25.63;;
71502;SDS011;59322;51.382;7.372;2024-03-02T11:52:41;26.58;;;25.08;;
71502;SDS011;59322;51.382;7.372;2024-03-02T11:55:08;25.42;;;24.02;;
71502;SDS011;59322;51.382;7.372;2024-03-02T11:57:34;28.80;;;27.10;;
71502;SDS011;59322;51.382;7.372;2024-03-02T12:00:00;24.60;;;23.05;;
71502;SDS011;59322;51.382;7.372;2024-03-02T12:02:26;26.00;;;24.50;;
71502;SDS011;59322;51.382;7.372;2024-03-02T12:04:52;28.52;;;26.92;;
71502;SDS011;59322;51.382;7.372;2024-03-02T12:07:19;24.15;;;22.75;;
71502;SDS011;59322;51.382;7.372;2024-03-02T12:09:45;24.58;;;22.98;;
71502;SDS011;59322;51.382;7.372;2024-03-02T12:12:11;24.83;;;23.30;;
71502;SDS011;59322;51.382;7.372;2024-03-02T12:14:37;27.27;;;25.67;;
71502;SDS011;59322;51.382;7.372;2024-03-02T12:17:04;25.27;;;23.75;;
71502;SDS011;59322;51.382;7.372;2024-03-02T12:19:30;28.80;;;27.17;;
71502;SDS011;59322;51.382;7.372;2024-03-02T12:21:57;26.02;;;24.52;;
71502;SDS011;59322;51.382;7.372;2024-03-02T12:24:23;24.25;;;22.75;;
71502;SDS011;59322;51.382;7.372;2024-03-02T12:26:50;25.70;;;24.25;;
71502;SDS011;59322;51.382;7.372;2024-03-02T12:29:16;24.42;;;23.02;;
71502;SDS011;59322;51.382;7.372;2024-03-02T12:31:42;24.02;;;22.63;;
71502;SDS011;59322;51.382;7.372;2024-03-02T12:34:08;25.17;;;23.55;;
71502;SDS011;59322;51.382;7.372;2024-03-02T12:36:40;23.20;;;21.77;;
71502;SDS011;59322;51.382;7.372;2024-03-02T12:39:07;23.58;;;22.08;;
71502;SDS011;59322;51.382;7.372;2024-03-02T12:41:33;25.27;;;23.77;;
71502;SDS011;59322;51.382;7.372;2024-03-02T12:43:59;27.35;;;25.73;;
71502;SDS011;59322;51.382;7.372;2024-03-02T12:46:24;24.40;;;23.02;;
71502;SDS011;59322;51.382;7.372;2024-03-02T12:48:51;23.75;;;22.45;;
71502;SDS011;59322;51.382;7.372;2024-03-02T12:51:17;25.33;;;23.90;;
71502;SDS011;59322;51.382;7.372;2024-03-02T12:53:43;25.33;;;23.92;;
71502;SDS011;59322;51.382;7.372;2024-03-02T12:56:08;23.70;;;22.20;;
71502;SDS011;59322;51.382;7.372;2024-03-02T12:58:41;24.80;;;23.35;;
71502;SDS011;59322;51.382;7.372;2024-03-02T13:01:07;25.23;;;23.83;;
71502;SDS011;59322;51.382;7.372;2024-03-02T13:03:39;24.73;;;23.30;;
71502;SDS011;59322;51.382;7.372;2024-03-02T13:06:05;25.23;;;23.83;;
71502;SDS011;59322;51.382;7.372;2024-03-02T13:08:32;25.15;;;23.75;;
71502;SDS011;59322;51.382;7.372;2024-03-02T13:10:58;22.33;;;21.02;;
71502;SDS011;59322;51.382;7.372;2024-03-02T13:13:24;23.55;;;22.25;;
71502;SDS011;59322;51.382;7.372;2024-03-02T13:15:54;21.80;;;20.60;;
71502;SDS011;59322;51.382;7.372;2024-03-02T13:18:20;22.10;;;20.88;;
71502;SDS011;59322;51.382;7.372;2024-03-02T13:20:47;20.13;;;19.02;;
71502;SDS011;59322;51.382;7.372;2024-03-02T13:23:12;19.77;;;18.67;;
71502;SDS011;59322;51.382;7.372;2024-03-02T13:25:38;21.55;;;20.25;;
71502;SDS011;59322;51.382;7.372;2024-03-02T13:28:04;21.33;;;20.13;;
71502;SDS011;59322;51.382;7.372;2024-03-02T13:30:30;20.13;;;18.92;;
71502;SDS011;59322;51.382;7.372;2024-03-02T13:32:56;20.35;;;19.08;;
71502;SDS011;59322;51.382;7.372;2024-03-02T13:35:22;19.55;;;18.35;;
71502;SDS011;59322;51.382;7.372;2024-03-02T13:37:48;20.13;;;18.92;;
71502;SDS011;59322;51.382;7.372;2024-03-02T13:40:14;18.35;;;17.25;;
71502;SDS011;59322;51.382;7.372;2024-03-02T13:42:40;22.45;;;21.15;;
71502;SDS011;59322;51.382;7.372;2024-03-02T13:45:06;21.77;;;20.58;;
71502;SDS011;59322;51.382;7.372;2024-03-02T13:47:32;21.75;;;20.55;;
71502;SDS011;59322;51.382;7.372;2024-03-02T13:49:58;21.80;;;20.60;;
71502;SDS011;59322;51.382;7.372;2024-03-02T13:52:24;21.55;;;20.35;;
71502;SDS011;59322;51.382;7.372;2024-03-02T13:54:49;22.58;;;21.33;;
71502;SDS011;59322;51.382;7.372;2024-03-02T13:57:15;22.00;;;20.80;;
71502;SDS011;59322;51.382;7.372;2024-03-02T13:59:42;22.17;;;20.77;;
71502;SDS011;59322;51.382;7.372;2024-03-02T14:02:08;20.63;;;19.52;;
71502;SDS011;59322;51.382;7.372;2024-03-02T14:04:34;19.73;;;18.52;;
71502;SDS011;59322;51.382;7.372;2024-03-02T14:07:00;19.98;;;18.77;;
71502;SDS011;59322;51.382;7.372;2024-03-02T14:09:26;21.15;;;20.02;;
71502;SDS011;59322;51.382;7.372;2024-03-02T14:11:53;20.10;;;18.85;;
71502;SDS011;59322;51.382;7.372;2024-03-02T14:14:19;22.80;;;21.50;;
71502;SDS011;59322;51.382;7.372;2024-03-02T14:16:45;23.00;;;21.70;;
71502;SDS011;59322;51.382;7.372;2024-03-02T14:19:11;23.27;;;21.77;;
71502;SDS011;59322;51.382;7.372;2024-03-02T14:21:37;19.95;;;18.75;;
71502;SDS011;59322;51.382;7.372;2024-03-02T14:24:03;21.17;;;19.75;;
71502;SDS011;59322;51.382;7.372;2024-03-02T14:26:29;21.85;;;20.55;;
71502;SDS011;59322;51.382;7.372;2024-03-02T14:28:55;20.75;;;19.45;;